Yalesville, CT

7:42 PM EDT on August 30, 2014 (GMT -0400)
Choate Rosemary Hall | Change Station
CLOSE
Current Station
Personal Weather Station
Location: Wallingford, CT
Elevation: 158 ft
Nearby Weather Stations

Elev 158 ft 41.46 °N, 72.81 °W | Updated 5 minutes ago

Scattered Clouds
Scattered Clouds
71.6 °F
Feels Like 73 °F
N
3.0
Wind Variable Wind from NW

Today
High -- | Low -- °F
--% Chance of Precip.
Yesterday
High -- | Low -- °F
Precip. -- in
6:15 AM 7:27 PM
Waxing Crescent, 25% visible
Pressure 30.16 in
Visibility 10.0 miles
Clouds Scattered Clouds 2900 ft
Heat Index 73 °F
Dew Point 64 °F
Humidity 76%
Rainfall 0.00 in
Snow Depth Not available.
UV 0.0 out of 12
Pollen 7.70 out of 12
Ozone Good
PM2.5 Good
Flu Activity Not available.
METAR KMMK 302253Z AUTO 18005KT 10SM SCT029 22/16 A3016 RMK AO2 SLP212 T02220161 TSNO

More Conditions Fewer Conditions

Pressure 30.16 in
Visibility 10.0 miles
Clouds Scattered Clouds 2900 ft
Heat Index 73 °F
Dew Point 64 °F
Humidity 76%
Rainfall 0.00 in
Snow Depth Not available.
UV 0.0 out of 12
Pollen 7.70 out of 12
Ozone Good
PM2.5 Good
Flu Activity Not available.
METAR KMMK 302253Z AUTO 18005KT 10SM SCT029 22/16 A3016 RMK AO2 SLP212 T02220161 TSNO

More Conditions Fewer Conditions

10-Day Weather Forecast

Almanac

Astronomy

Aug. 30, 2014 Rise Set
Actual Time 6:15 AM EDT 7:27 PM EDT
Civil Twilight 5:46 AM EDT 7:56 PM EDT
Nautical Twilight 5:12 AM EDT 8:30 PM EDT
Astronomical Twilight 4:36 AM EDT 9:05 PM EDT
Moon 11:03 AM EDT 9:56 PM EDT
Length of Visible Light 14h 09m
Length of Day
13h 12m
Tomorrow will be 2m 38s shorter.
Waxing Crescent, 25% of the Moon is Illuminated
Today
Waxing Crescent
Sep 2
First Quarter
Sep 8
Full
Sep 15
Last Quarter
Sep 24
New

Today's Extremes

State Highs State Lows

Community

WunderPhotos

Upload Photos

1,748,676 photos uploaded!

Nearby

Air Quality

  Air Quality AQ Index Pollutant
Yesterday Good
OZONE
Yesterday Good
PM10
Current Good
OZONE
Current Good
PM2.5
Saturday Good
OZONE
Saturday Good
PM2.5
Sunday Moderate
PM2.5
Sunday Good
OZONE
Monday Moderate
PM2.5
Monday Good
OZONE
Tuesday Moderate
OZONE
Tuesday Moderate
PM2.5

Snow Depth

Station Depth Elevation
No new snow has been reported.

Earthquake Activity

City Distance Mag. Time & Date
No recent earthquake activity has been reported nearby.
Minimum magnitude displayed is 2.5.

Coastal Water Temperatures

Place Temperature
New London, CT 71.1 °F
Newport, RI 69.1 °F
Quonset Point, RI 73.0 °F
Conimicut Light, RI 72.0 °F
Providence, RI 71.1 °F

Nearby Weather Stations